sensor_id;sensor_type;location;lat;lon;timestamp;P1;durP1;ratioP1;P2;durP2;ratioP2
69392;SDS011;56582;44.624;20.378;2022-07-19T00:01:55;5.50;;;3.10;;
69392;SDS011;56582;44.624;20.378;2022-07-19T00:04:21;7.72;;;3.20;;
69392;SDS011;56582;44.624;20.378;2022-07-19T00:06:46;5.43;;;3.10;;
69392;SDS011;56582;44.624;20.378;2022-07-19T00:09:11;5.67;;;2.87;;
69392;SDS011;56582;44.624;20.378;2022-07-19T00:11:37;5.07;;;2.90;;
69392;SDS011;56582;44.624;20.378;2022-07-19T00:14:02;5.07;;;3.10;;
69392;SDS011;56582;44.624;20.378;2022-07-19T00:16:28;6.30;;;3.60;;
69392;SDS011;56582;44.624;20.378;2022-07-19T00:18:53;6.70;;;3.87;;
69392;SDS011;56582;44.624;20.378;2022-07-19T00:21:19;6.60;;;3.45;;
69392;SDS011;56582;44.624;20.378;2022-07-19T00:23:44;6.10;;;3.03;;
69392;SDS011;56582;44.624;20.378;2022-07-19T00:26:10;5.60;;;3.57;;
69392;SDS011;56582;44.624;20.378;2022-07-19T00:28:35;7.07;;;3.10;;
69392;SDS011;56582;44.624;20.378;2022-07-19T00:31:01;8.83;;;3.40;;
69392;SDS011;56582;44.624;20.378;2022-07-19T00:33:26;6.53;;;3.10;;
69392;SDS011;56582;44.624;20.378;2022-07-19T00:35:51;7.17;;;3.43;;
69392;SDS011;56582;44.624;20.378;2022-07-19T00:38:17;5.80;;;3.28;;
69392;SDS011;56582;44.624;20.378;2022-07-19T00:40:45;7.67;;;3.03;;
69392;SDS011;56582;44.624;20.378;2022-07-19T00:43:13;5.97;;;3.50;;
69392;SDS011;56582;44.624;20.378;2022-07-19T00:45:38;6.03;;;3.17;;
69392;SDS011;56582;44.624;20.378;2022-07-19T00:48:16;6.55;;;3.30;;
69392;SDS011;56582;44.624;20.378;2022-07-19T00:50:41;7.57;;;3.33;;
69392;SDS011;56582;44.624;20.378;2022-07-19T00:53:07;5.22;;;3.50;;
69392;SDS011;56582;44.624;20.378;2022-07-19T00:55:36;7.17;;;3.40;;
69392;SDS011;56582;44.624;20.378;2022-07-19T00:58:05;6.93;;;3.55;;
69392;SDS011;56582;44.624;20.378;2022-07-19T01:00:33;7.72;;;3.72;;
69392;SDS011;56582;44.624;20.378;2022-07-19T01:03:00;10.10;;;3.75;;
69392;SDS011;56582;44.624;20.378;2022-07-19T01:05:29;6.30;;;3.60;;
69392;SDS011;56582;44.624;20.378;2022-07-19T01:07:54;7.93;;;4.43;;
69392;SDS011;56582;44.624;20.378;2022-07-19T01:10:22;5.90;;;3.60;;
69392;SDS011;56582;44.624;20.378;2022-07-19T01:12:47;9.63;;;4.10;;
69392;SDS011;56582;44.624;20.378;2022-07-19T01:15:17;6.87;;;3.83;;
69392;SDS011;56582;44.624;20.378;2022-07-19T01:17:48;9.83;;;5.27;;
69392;SDS011;56582;44.624;20.378;2022-07-19T01:20:15;11.35;;;6.05;;
69392;SDS011;56582;44.624;20.378;2022-07-19T01:22:41;9.82;;;5.53;;
69392;SDS011;56582;44.624;20.378;2022-07-19T01:25:08;10.85;;;5.32;;
69392;SDS011;56582;44.624;20.378;2022-07-19T01:27:41;13.27;;;6.28;;
69392;SDS011;56582;44.624;20.378;2022-07-19T01:30:17;11.60;;;6.03;;
69392;SDS011;56582;44.624;20.378;2022-07-19T01:32:44;9.57;;;6.18;;
69392;SDS011;56582;44.624;20.378;2022-07-19T01:35:13;8.75;;;4.82;;
69392;SDS011;56582;44.624;20.378;2022-07-19T01:37:39;11.73;;;6.20;;
69392;SDS011;56582;44.624;20.378;2022-07-19T01:40:06;10.85;;;5.47;;
69392;SDS011;56582;44.624;20.378;2022-07-19T01:42:35;9.40;;;5.27;;
69392;SDS011;56582;44.624;20.378;2022-07-19T01:45:04;9.70;;;5.70;;
69392;SDS011;56582;44.624;20.378;2022-07-19T01:47:41;10.52;;;5.68;;
69392;SDS011;56582;44.624;20.378;2022-07-19T01:50:07;9.90;;;5.65;;
69392;SDS011;56582;44.624;20.378;2022-07-19T01:52:38;16.10;;;6.32;;
69392;SDS011;56582;44.624;20.378;2022-07-19T01:55:12;10.87;;;6.10;;
69392;SDS011;56582;44.624;20.378;2022-07-19T01:57:49;10.30;;;5.90;;
69392;SDS011;56582;44.624;20.378;2022-07-19T02:00:14;9.02;;;5.30;;
69392;SDS011;56582;44.624;20.378;2022-07-19T02:02:40;8.97;;;5.60;;
69392;SDS011;56582;44.624;20.378;2022-07-19T02:05:11;8.80;;;4.97;;
69392;SDS011;56582;44.624;20.378;2022-07-19T02:07:45;9.13;;;4.60;;
69392;SDS011;56582;44.624;20.378;2022-07-19T02:10:11;11.57;;;5.50;;
69392;SDS011;56582;44.624;20.378;2022-07-19T02:12:36;8.35;;;5.35;;
69392;SDS011;56582;44.624;20.378;2022-07-19T02:15:02;8.13;;;5.00;;
69392;SDS011;56582;44.624;20.378;2022-07-19T02:17:28;9.88;;;4.53;;
69392;SDS011;56582;44.624;20.378;2022-07-19T02:19:54;13.13;;;5.10;;
69392;SDS011;56582;44.624;20.378;2022-07-19T02:22:19;15.23;;;4.77;;
69392;SDS011;56582;44.624;20.378;2022-07-19T02:24:45;9.30;;;5.07;;
69392;SDS011;56582;44.624;20.378;2022-07-19T02:27:10;9.07;;;5.37;;
69392;SDS011;56582;44.624;20.378;2022-07-19T02:29:36;9.17;;;5.33;;
69392;SDS011;56582;44.624;20.378;2022-07-19T02:32:02;24.73;;;5.65;;
69392;SDS011;56582;44.624;20.378;2022-07-19T02:34:27;23.03;;;4.20;;
69392;SDS011;56582;44.624;20.378;2022-07-19T02:36:52;8.40;;;5.10;;
69392;SDS011;56582;44.624;20.378;2022-07-19T02:39:18;11.73;;;4.57;;
69392;SDS011;56582;44.624;20.378;2022-07-19T02:41:43;9.23;;;5.10;;
69392;SDS011;56582;44.624;20.378;2022-07-19T02:44:09;9.87;;;5.00;;
69392;SDS011;56582;44.624;20.378;2022-07-19T02:46:35;16.15;;;5.72;;
69392;SDS011;56582;44.624;20.378;2022-07-19T02:49:00;13.10;;;4.27;;
69392;SDS011;56582;44.624;20.378;2022-07-19T02:51:26;9.10;;;4.07;;
69392;SDS011;56582;44.624;20.378;2022-07-19T02:53:51;7.93;;;4.27;;
69392;SDS011;56582;44.624;20.378;2022-07-19T02:56:17;12.93;;;4.32;;
69392;SDS011;56582;44.624;20.378;2022-07-19T02:58:42;7.53;;;4.00;;
69392;SDS011;56582;44.624;20.378;2022-07-19T03:01:08;10.37;;;4.00;;
69392;SDS011;56582;44.624;20.378;2022-07-19T03:03:34;7.75;;;4.75;;
69392;SDS011;56582;44.624;20.378;2022-07-19T03:06:09;15.17;;;4.17;;
69392;SDS011;56582;44.624;20.378;2022-07-19T03:08:35;11.13;;;3.67;;
69392;SDS011;56582;44.624;20.378;2022-07-19T03:11:01;9.13;;;3.85;;
69392;SDS011;56582;44.624;20.378;2022-07-19T03:13:27;11.30;;;3.90;;
69392;SDS011;56582;44.624;20.378;2022-07-19T03:15:52;17.60;;;3.88;;
69392;SDS011;56582;44.624;20.378;2022-07-19T03:18:18;7.10;;;3.60;;
69392;SDS011;56582;44.624;20.378;2022-07-19T03:20:43;10.50;;;3.97;;
69392;SDS011;56582;44.624;20.378;2022-07-19T03:23:09;11.93;;;4.38;;
69392;SDS011;56582;44.624;20.378;2022-07-19T03:25:34;9.67;;;4.20;;
69392;SDS011;56582;44.624;20.378;2022-07-19T03:28:00;9.20;;;4.37;;
69392;SDS011;56582;44.624;20.378;2022-07-19T03:30:25;10.13;;;5.00;;
69392;SDS011;56582;44.624;20.378;2022-07-19T03:32:51;12.63;;;4.43;;
69392;SDS011;56582;44.624;20.378;2022-07-19T03:35:17;10.97;;;4.00;;
69392;SDS011;56582;44.624;20.378;2022-07-19T03:37:42;10.73;;;3.50;;
69392;SDS011;56582;44.624;20.378;2022-07-19T03:40:08;9.67;;;3.57;;
69392;SDS011;56582;44.624;20.378;2022-07-19T03:42:34;10.88;;;4.00;;
69392;SDS011;56582;44.624;20.378;2022-07-19T03:44:59;12.13;;;3.60;;
69392;SDS011;56582;44.624;20.378;2022-07-19T03:47:25;14.48;;;4.07;;
69392;SDS011;56582;44.624;20.378;2022-07-19T03:49:50;14.80;;;3.97;;
69392;SDS011;56582;44.624;20.378;2022-07-19T03:52:16;11.20;;;3.80;;
69392;SDS011;56582;44.624;20.378;2022-07-19T03:54:41;8.23;;;4.00;;
69392;SDS011;56582;44.624;20.378;2022-07-19T03:57:07;14.70;;;3.70;;
69392;SDS011;56582;44.624;20.378;2022-07-19T03:59:32;13.47;;;3.93;;
69392;SDS011;56582;44.624;20.378;2022-07-19T04:01:57;14.77;;;4.00;;
69392;SDS011;56582;44.624;20.378;2022-07-19T04:04:23;10.33;;;4.27;;
69392;SDS011;56582;44.624;20.378;2022-07-19T04:06:48;12.23;;;4.05;;
69392;SDS011;56582;44.624;20.378;2022-07-19T04:09:14;14.23;;;3.80;;
69392;SDS011;56582;44.624;20.378;2022-07-19T04:11:39;9.83;;;4.07;;
69392;SDS011;56582;44.624;20.378;2022-07-19T04:14:05;7.57;;;3.90;;
69392;SDS011;56582;44.624;20.378;2022-07-19T04:16:30;6.60;;;3.97;;
69392;SDS011;56582;44.624;20.378;2022-07-19T04:18:56;7.97;;;3.60;;
69392;SDS011;56582;44.624;20.378;2022-07-19T04:21:21;7.67;;;4.00;;
69392;SDS011;56582;44.624;20.378;2022-07-19T04:23:47;6.75;;;4.00;;
69392;SDS011;56582;44.624;20.378;2022-07-19T04:26:12;7.23;;;3.93;;
69392;SDS011;56582;44.624;20.378;2022-07-19T04:28:37;8.90;;;4.07;;
69392;SDS011;56582;44.624;20.378;2022-07-19T04:31:03;7.47;;;4.20;;
69392;SDS011;56582;44.624;20.378;2022-07-19T04:33:29;8.30;;;4.23;;
69392;SDS011;56582;44.624;20.378;2022-07-19T04:35:54;9.40;;;3.90;;
69392;SDS011;56582;44.624;20.378;2022-07-19T04:38:20;7.07;;;3.77;;
69392;SDS011;56582;44.624;20.378;2022-07-19T04:40:46;6.70;;;4.32;;
69392;SDS011;56582;44.624;20.378;2022-07-19T04:43:12;6.97;;;4.37;;
69392;SDS011;56582;44.624;20.378;2022-07-19T04:45:37;7.73;;;4.90;;
69392;SDS011;56582;44.624;20.378;2022-07-19T04:48:05;9.27;;;4.63;;
69392;SDS011;56582;44.624;20.378;2022-07-19T04:50:31;7.32;;;4.40;;
69392;SDS011;56582;44.624;20.378;2022-07-19T04:52:56;8.03;;;5.10;;
69392;SDS011;56582;44.624;20.378;2022-07-19T04:55:22;11.13;;;4.82;;
69392;SDS011;56582;44.624;20.378;2022-07-19T04:57:47;7.10;;;4.03;;
69392;SDS011;56582;44.624;20.378;2022-07-19T05:00:13;10.60;;;4.60;;
69392;SDS011;56582;44.624;20.378;2022-07-19T05:02:38;10.82;;;4.97;;
69392;SDS011;56582;44.624;20.378;2022-07-19T05:05:04;7.43;;;4.40;;
69392;SDS011;56582;44.624;20.378;2022-07-19T05:07:30;7.07;;;4.20;;
69392;SDS011;56582;44.624;20.378;2022-07-19T05:09:56;9.60;;;3.70;;
69392;SDS011;56582;44.624;20.378;2022-07-19T05:12:22;7.13;;;4.32;;
69392;SDS011;56582;44.624;20.378;2022-07-19T05:14:48;6.82;;;3.92;;
69392;SDS011;56582;44.624;20.378;2022-07-19T05:17:13;8.13;;;4.30;;
69392;SDS011;56582;44.624;20.378;2022-07-19T05:19:39;6.63;;;4.43;;
69392;SDS011;56582;44.624;20.378;2022-07-19T05:22:05;7.67;;;4.47;;
69392;SDS011;56582;44.624;20.378;2022-07-19T05:24:30;6.27;;;4.07;;
69392;SDS011;56582;44.624;20.378;2022-07-19T05:26:59;6.95;;;4.40;;
69392;SDS011;56582;44.624;20.378;2022-07-19T05:29:25;7.53;;;3.90;;
69392;SDS011;56582;44.624;20.378;2022-07-19T05:31:50;7.93;;;4.20;;
69392;SDS011;56582;44.624;20.378;2022-07-19T05:34:16;7.77;;;4.23;;
69392;SDS011;56582;44.624;20.378;2022-07-19T05:36:41;7.43;;;4.30;;
69392;SDS011;56582;44.624;20.378;2022-07-19T05:39:07;7.45;;;3.80;;
69392;SDS011;56582;44.624;20.378;2022-07-19T05:41:32;6.93;;;4.13;;
69392;SDS011;56582;44.624;20.378;2022-07-19T05:43:58;8.57;;;4.10;;
69392;SDS011;56582;44.624;20.378;2022-07-19T05:46:24;7.25;;;4.05;;
69392;SDS011;56582;44.624;20.378;2022-07-19T05:48:49;7.00;;;4.37;;
69392;SDS011;56582;44.624;20.378;2022-07-19T05:51:15;5.60;;;3.50;;
69392;SDS011;56582;44.624;20.378;2022-07-19T05:53:40;6.35;;;3.70;;
69392;SDS011;56582;44.624;20.378;2022-07-19T05:56:06;8.27;;;3.93;;
69392;SDS011;56582;44.624;20.378;2022-07-19T05:58:32;8.80;;;4.05;;
69392;SDS011;56582;44.624;20.378;2022-07-19T06:00:58;6.18;;;3.95;;
69392;SDS011;56582;44.624;20.378;2022-07-19T06:03:42;10.40;;;4.40;;
69392;SDS011;56582;44.624;20.378;2022-07-19T06:06:07;8.73;;;3.93;;
69392;SDS011;56582;44.624;20.378;2022-07-19T06:08:33;9.20;;;4.30;;
69392;SDS011;56582;44.624;20.378;2022-07-19T06:10:58;7.60;;;3.75;;
69392;SDS011;56582;44.624;20.378;2022-07-19T06:13:24;8.90;;;4.00;;
69392;SDS011;56582;44.624;20.378;2022-07-19T06:15:50;12.43;;;4.63;;
69392;SDS011;56582;44.624;20.378;2022-07-19T06:18:16;7.00;;;3.93;;
69392;SDS011;56582;44.624;20.378;2022-07-19T06:20:41;8.10;;;4.22;;
69392;SDS011;56582;44.624;20.378;2022-07-19T06:23:07;9.50;;;4.63;;
69392;SDS011;56582;44.624;20.378;2022-07-19T06:25:33;7.53;;;4.43;;
69392;SDS011;56582;44.624;20.378;2022-07-19T06:27:58;9.87;;;4.27;;
69392;SDS011;56582;44.624;20.378;2022-07-19T06:30:24;7.63;;;3.83;;
69392;SDS011;56582;44.624;20.378;2022-07-19T06:32:49;7.70;;;4.47;;
69392;SDS011;56582;44.624;20.378;2022-07-19T06:35:15;6.97;;;4.37;;
69392;SDS011;56582;44.624;20.378;2022-07-19T06:37:40;8.90;;;4.68;;
69392;SDS011;56582;44.624;20.378;2022-07-19T06:40:06;7.17;;;4.47;;
69392;SDS011;56582;44.624;20.378;2022-07-19T06:42:32;6.57;;;3.90;;
69392;SDS011;56582;44.624;20.378;2022-07-19T06:44:57;9.98;;;4.07;;
69392;SDS011;56582;44.624;20.378;2022-07-19T06:47:26;6.97;;;4.18;;
69392;SDS011;56582;44.624;20.378;2022-07-19T06:49:54;7.07;;;3.95;;
69392;SDS011;56582;44.624;20.378;2022-07-19T06:52:20;9.13;;;4.47;;
69392;SDS011;56582;44.624;20.378;2022-07-19T06:54:45;6.80;;;4.23;;
69392;SDS011;56582;44.624;20.378;2022-07-19T06:57:11;8.33;;;4.63;;
69392;SDS011;56582;44.624;20.378;2022-07-19T06:59:37;9.07;;;4.40;;
69392;SDS011;56582;44.624;20.378;2022-07-19T07:02:02;8.25;;;4.20;;
69392;SDS011;56582;44.624;20.378;2022-07-19T07:04:29;7.03;;;4.40;;
69392;SDS011;56582;44.624;20.378;2022-07-19T07:06:55;7.20;;;4.40;;
69392;SDS011;56582;44.624;20.378;2022-07-19T07:09:21;7.88;;;4.15;;
69392;SDS011;56582;44.624;20.378;2022-07-19T07:11:46;7.70;;;4.90;;
69392;SDS011;56582;44.624;20.378;2022-07-19T07:14:12;8.88;;;4.55;;
69392;SDS011;56582;44.624;20.378;2022-07-19T07:16:37;6.63;;;4.47;;
69392;SDS011;56582;44.624;20.378;2022-07-19T07:19:02;6.50;;;4.00;;
69392;SDS011;56582;44.624;20.378;2022-07-19T07:21:28;10.53;;;4.50;;
69392;SDS011;56582;44.624;20.378;2022-07-19T07:23:55;7.90;;;4.03;;
69392;SDS011;56582;44.624;20.378;2022-07-19T07:26:20;8.27;;;3.97;;
69392;SDS011;56582;44.624;20.378;2022-07-19T07:28:46;6.72;;;4.50;;
69392;SDS011;56582;44.624;20.378;2022-07-19T07:31:11;7.80;;;4.63;;
69392;SDS011;56582;44.624;20.378;2022-07-19T07:33:36;9.27;;;4.67;;
69392;SDS011;56582;44.624;20.378;2022-07-19T07:36:02;7.90;;;4.30;;
69392;SDS011;56582;44.624;20.378;2022-07-19T07:38:27;10.70;;;4.68;;
69392;SDS011;56582;44.624;20.378;2022-07-19T07:40:53;8.23;;;4.43;;
69392;SDS011;56582;44.624;20.378;2022-07-19T07:43:18;7.60;;;5.00;;
69392;SDS011;56582;44.624;20.378;2022-07-19T07:45:44;7.07;;;4.30;;
69392;SDS011;56582;44.624;20.378;2022-07-19T07:48:09;7.00;;;4.43;;
69392;SDS011;56582;44.624;20.378;2022-07-19T07:50:35;7.63;;;4.73;;
69392;SDS011;56582;44.624;20.378;2022-07-19T07:53:00;7.87;;;4.30;;
69392;SDS011;56582;44.624;20.378;2022-07-19T07:55:25;8.57;;;4.43;;
69392;SDS011;56582;44.624;20.378;2022-07-19T07:57:51;7.80;;;4.47;;
69392;SDS011;56582;44.624;20.378;2022-07-19T08:00:17;8.35;;;4.82;;
69392;SDS011;56582;44.624;20.378;2022-07-19T08:02:44;7.70;;;4.17;;
69392;SDS011;56582;44.624;20.378;2022-07-19T08:05:11;7.25;;;4.43;;
69392;SDS011;56582;44.624;20.378;2022-07-19T08:07:37;9.63;;;4.35;;
69392;SDS011;56582;44.624;20.378;2022-07-19T08:10:04;7.85;;;4.22;;
69392;SDS011;56582;44.624;20.378;2022-07-19T08:12:32;7.82;;;3.72;;
69392;SDS011;56582;44.624;20.378;2022-07-19T08:14:57;7.07;;;3.93;;
69392;SDS011;56582;44.624;20.378;2022-07-19T08:17:23;8.27;;;3.72;;
69392;SDS011;56582;44.624;20.378;2022-07-19T08:19:48;7.13;;;4.13;;
69392;SDS011;56582;44.624;20.378;2022-07-19T08:22:14;9.10;;;4.20;;
69392;SDS011;56582;44.624;20.378;2022-07-19T08:24:40;10.18;;;3.65;;
69392;SDS011;56582;44.624;20.378;2022-07-19T08:27:06;8.50;;;4.38;;
69392;SDS011;56582;44.624;20.378;2022-07-19T08:29:32;8.57;;;3.90;;
69392;SDS011;56582;44.624;20.378;2022-07-19T08:31:57;5.73;;;3.57;;
69392;SDS011;56582;44.624;20.378;2022-07-19T08:34:22;6.80;;;3.85;;
69392;SDS011;56582;44.624;20.378;2022-07-19T08:36:48;8.77;;;3.83;;
69392;SDS011;56582;44.624;20.378;2022-07-19T08:39:13;6.03;;;3.90;;
69392;SDS011;56582;44.624;20.378;2022-07-19T08:41:40;6.40;;;3.83;;
69392;SDS011;56582;44.624;20.378;2022-07-19T08:44:08;7.70;;;3.90;;
69392;SDS011;56582;44.624;20.378;2022-07-19T08:46:33;7.35;;;4.20;;
69392;SDS011;56582;44.624;20.378;2022-07-19T08:48:59;7.00;;;4.27;;
69392;SDS011;56582;44.624;20.378;2022-07-19T08:51:26;7.28;;;3.80;;
69392;SDS011;56582;44.624;20.378;2022-07-19T08:53:52;7.97;;;4.07;;
69392;SDS011;56582;44.624;20.378;2022-07-19T08:56:18;9.03;;;4.30;;
69392;SDS011;56582;44.624;20.378;2022-07-19T08:59:04;7.13;;;3.45;;
69392;SDS011;56582;44.624;20.378;2022-07-19T09:01:30;9.73;;;3.67;;
69392;SDS011;56582;44.624;20.378;2022-07-19T09:04:14;7.20;;;3.83;;
69392;SDS011;56582;44.624;20.378;2022-07-19T09:06:46;5.70;;;4.43;;
69392;SDS011;56582;44.624;20.378;2022-07-19T09:09:16;7.47;;;4.03;;
69392;SDS011;56582;44.624;20.378;2022-07-19T09:11:54;6.53;;;4.10;;
69392;SDS011;56582;44.624;20.378;2022-07-19T09:14:25;6.13;;;3.67;;
69392;SDS011;56582;44.624;20.378;2022-07-19T09:19:19;6.65;;;3.63;;
69392;SDS011;56582;44.624;20.378;2022-07-19T09:24:21;6.70;;;3.80;;
69392;SDS011;56582;44.624;20.378;2022-07-19T09:29:31;6.43;;;3.40;;
69392;SDS011;56582;44.624;20.378;2022-07-19T09:32:19;6.57;;;3.17;;
69392;SDS011;56582;44.624;20.378;2022-07-19T09:39:54;6.38;;;3.88;;
69392;SDS011;56582;44.624;20.378;2022-07-19T09:42:22;6.72;;;3.00;;
69392;SDS011;56582;44.624;20.378;2022-07-19T09:44:58;6.30;;;3.40;;
69392;SDS011;56582;44.624;20.378;2022-07-19T09:47:46;6.88;;;4.32;;
69392;SDS011;56582;44.624;20.378;2022-07-19T09:50:17;9.60;;;4.30;;
69392;SDS011;56582;44.624;20.378;2022-07-19T09:52:44;5.63;;;3.70;;
69392;SDS011;56582;44.624;20.378;2022-07-19T09:55:11;6.57;;;4.68;;
69392;SDS011;56582;44.624;20.378;2022-07-19T09:57:41;8.70;;;3.95;;
69392;SDS011;56582;44.624;20.378;2022-07-19T10:00:09;6.65;;;3.38;;
69392;SDS011;56582;44.624;20.378;2022-07-19T10:02:37;9.17;;;3.93;;
69392;SDS011;56582;44.624;20.378;2022-07-19T10:05:06;8.95;;;4.40;;
69392;SDS011;56582;44.624;20.378;2022-07-19T10:07:33;11.63;;;4.72;;
69392;SDS011;56582;44.624;20.378;2022-07-19T10:10:03;9.88;;;4.10;;
69392;SDS011;56582;44.624;20.378;2022-07-19T10:12:36;6.25;;;4.20;;
69392;SDS011;56582;44.624;20.378;2022-07-19T10:15:03;10.20;;;3.73;;
69392;SDS011;56582;44.624;20.378;2022-07-19T10:17:32;7.22;;;3.72;;
69392;SDS011;56582;44.624;20.378;2022-07-19T10:20:02;5.72;;;3.17;;
69392;SDS011;56582;44.624;20.378;2022-07-19T10:22:29;6.35;;;3.88;;
69392;SDS011;56582;44.624;20.378;2022-07-19T10:24:57;8.50;;;3.40;;
69392;SDS011;56582;44.624;20.378;2022-07-19T10:27:45;5.13;;;3.10;;
69392;SDS011;56582;44.624;20.378;2022-07-19T10:30:17;6.88;;;3.30;;
69392;SDS011;56582;44.624;20.378;2022-07-19T10:32:46;8.20;;;3.60;;
69392;SDS011;56582;44.624;20.378;2022-07-19T10:35:22;10.35;;;4.63;;
69392;SDS011;56582;44.624;20.378;2022-07-19T10:43:16;6.65;;;3.70;;
69392;SDS011;56582;44.624;20.378;2022-07-19T10:48:39;6.45;;;4.00;;
69392;SDS011;56582;44.624;20.378;2022-07-19T10:51:32;5.35;;;3.70;;
69392;SDS011;56582;44.624;20.378;2022-07-19T10:54:00;5.67;;;3.10;;
69392;SDS011;56582;44.624;20.378;2022-07-19T10:56:29;6.80;;;3.28;;
69392;SDS011;56582;44.624;20.378;2022-07-19T10:59:00;5.47;;;3.72;;
69392;SDS011;56582;44.624;20.378;2022-07-19T11:01:28;5.95;;;3.28;;
69392;SDS011;56582;44.624;20.378;2022-07-19T11:06:51;8.23;;;4.10;;
69392;SDS011;56582;44.624;20.378;2022-07-19T11:09:50;5.70;;;4.55;;
69392;SDS011;56582;44.624;20.378;2022-07-19T11:12:19;5.45;;;3.70;;
69392;SDS011;56582;44.624;20.378;2022-07-19T11:14:52;5.80;;;3.90;;
69392;SDS011;56582;44.624;20.378;2022-07-19T11:17:18;5.25;;;4.07;;
69392;SDS011;56582;44.624;20.378;2022-07-19T11:22:44;8.43;;;4.68;;
69392;SDS011;56582;44.624;20.378;2022-07-19T11:25:11;6.80;;;3.30;;
69392;SDS011;56582;44.624;20.378;2022-07-19T11:27:42;6.63;;;3.65;;
69392;SDS011;56582;44.624;20.378;2022-07-19T11:30:10;6.97;;;3.53;;
69392;SDS011;56582;44.624;20.378;2022-07-19T11:32:38;7.60;;;3.63;;
69392;SDS011;56582;44.624;20.378;2022-07-19T11:35:07;5.68;;;3.40;;
69392;SDS011;56582;44.624;20.378;2022-07-19T11:37:34;5.07;;;2.90;;
69392;SDS011;56582;44.624;20.378;2022-07-19T11:40:03;5.10;;;2.75;;
69392;SDS011;56582;44.624;20.378;2022-07-19T11:45:13;7.65;;;3.30;;
69392;SDS011;56582;44.624;20.378;2022-07-19T11:47:44;4.65;;;2.90;;
69392;SDS011;56582;44.624;20.378;2022-07-19T11:50:12;6.20;;;3.17;;
69392;SDS011;56582;44.624;20.378;2022-07-19T11:52:55;4.82;;;2.90;;
69392;SDS011;56582;44.624;20.378;2022-07-19T11:55:23;7.55;;;2.90;;
69392;SDS011;56582;44.624;20.378;2022-07-19T11:57:52;5.32;;;2.80;;
69392;SDS011;56582;44.624;20.378;2022-07-19T12:00:18;7.43;;;4.10;;
69392;SDS011;56582;44.624;20.378;2022-07-19T12:02:54;5.33;;;3.57;;
69392;SDS011;56582;44.624;20.378;2022-07-19T12:05:29;6.90;;;2.80;;
69392;SDS011;56582;44.624;20.378;2022-07-19T12:08:02;6.05;;;3.70;;
69392;SDS011;56582;44.624;20.378;2022-07-19T12:10:36;4.97;;;3.25;;
69392;SDS011;56582;44.624;20.378;2022-07-19T12:13:05;10.40;;;4.00;;
69392;SDS011;56582;44.624;20.378;2022-07-19T12:18:08;7.32;;;3.88;;
69392;SDS011;56582;44.624;20.378;2022-07-19T12:20:33;5.93;;;3.90;;
69392;SDS011;56582;44.624;20.378;2022-07-19T12:23:12;7.13;;;3.07;;
69392;SDS011;56582;44.624;20.378;2022-07-19T12:25:39;5.85;;;3.47;;
69392;SDS011;56582;44.624;20.378;2022-07-19T12:28:04;6.43;;;3.10;;
69392;SDS011;56582;44.624;20.378;2022-07-19T12:30:30;7.50;;;3.40;;
69392;SDS011;56582;44.624;20.378;2022-07-19T12:33:11;4.53;;;2.88;;
69392;SDS011;56582;44.624;20.378;2022-07-19T12:35:45;5.13;;;3.42;;
69392;SDS011;56582;44.624;20.378;2022-07-19T12:38:12;5.80;;;2.90;;
69392;SDS011;56582;44.624;20.378;2022-07-19T12:40:39;5.57;;;2.72;;
69392;SDS011;56582;44.624;20.378;2022-07-19T12:43:08;6.18;;;3.28;;
69392;SDS011;56582;44.624;20.378;2022-07-19T12:45:43;4.82;;;3.00;;
69392;SDS011;56582;44.624;20.378;2022-07-19T12:48:11;6.30;;;2.88;;
69392;SDS011;56582;44.624;20.378;2022-07-19T12:53:10;6.10;;;3.08;;
69392;SDS011;56582;44.624;20.378;2022-07-19T12:55:39;11.15;;;3.17;;
69392;SDS011;56582;44.624;20.378;2022-07-19T12:58:09;6.78;;;3.10;;
69392;SDS011;56582;44.624;20.378;2022-07-19T13:00:35;6.93;;;3.17;;
69392;SDS011;56582;44.624;20.378;2022-07-19T13:03:02;5.27;;;3.00;;
69392;SDS011;56582;44.624;20.378;2022-07-19T13:05:28;6.75;;;2.85;;
69392;SDS011;56582;44.624;20.378;2022-07-19T13:07:54;5.65;;;3.28;;
69392;SDS011;56582;44.624;20.378;2022-07-19T13:10:20;6.85;;;3.60;;
69392;SDS011;56582;44.624;20.378;2022-07-19T13:12:46;5.67;;;3.33;;
69392;SDS011;56582;44.624;20.378;2022-07-19T13:15:12;5.95;;;3.08;;
69392;SDS011;56582;44.624;20.378;2022-07-19T13:17:38;7.97;;;3.30;;
69392;SDS011;56582;44.624;20.378;2022-07-19T13:20:04;6.07;;;3.57;;
69392;SDS011;56582;44.624;20.378;2022-07-19T13:22:34;7.13;;;3.78;;
69392;SDS011;56582;44.624;20.378;2022-07-19T13:25:00;5.45;;;3.47;;
69392;SDS011;56582;44.624;20.378;2022-07-19T13:27:26;5.07;;;3.03;;
69392;SDS011;56582;44.624;20.378;2022-07-19T13:29:52;5.10;;;3.23;;
69392;SDS011;56582;44.624;20.378;2022-07-19T13:32:17;6.13;;;3.10;;
69392;SDS011;56582;44.624;20.378;2022-07-19T13:34:43;7.15;;;3.33;;
69392;SDS011;56582;44.624;20.378;2022-07-19T13:37:09;5.63;;;2.60;;
69392;SDS011;56582;44.624;20.378;2022-07-19T13:39:34;4.70;;;2.90;;
69392;SDS011;56582;44.624;20.378;2022-07-19T13:42:00;6.37;;;3.30;;
69392;SDS011;56582;44.624;20.378;2022-07-19T13:44:25;8.80;;;4.43;;
69392;SDS011;56582;44.624;20.378;2022-07-19T13:46:51;5.17;;;2.90;;
69392;SDS011;56582;44.624;20.378;2022-07-19T13:49:16;9.40;;;3.35;;
69392;SDS011;56582;44.624;20.378;2022-07-19T13:51:42;9.37;;;3.10;;
69392;SDS011;56582;44.624;20.378;2022-07-19T13:54:08;9.65;;;3.20;;
69392;SDS011;56582;44.624;20.378;2022-07-19T13:56:34;4.95;;;2.90;;
69392;SDS011;56582;44.624;20.378;2022-07-19T13:59:00;7.63;;;2.47;;
69392;SDS011;56582;44.624;20.378;2022-07-19T14:01:26;6.65;;;2.40;;
69392;SDS011;56582;44.624;20.378;2022-07-19T14:03:52;5.35;;;3.28;;
69392;SDS011;56582;44.624;20.378;2022-07-19T14:06:18;6.57;;;2.97;;
69392;SDS011;56582;44.624;20.378;2022-07-19T14:08:43;4.60;;;2.97;;
69392;SDS011;56582;44.624;20.378;2022-07-19T14:11:10;8.07;;;3.00;;
69392;SDS011;56582;44.624;20.378;2022-07-19T14:13:35;5.55;;;2.97;;
69392;SDS011;56582;44.624;20.378;2022-07-19T14:16:01;5.77;;;2.70;;
69392;SDS011;56582;44.624;20.378;2022-07-19T14:18:28;6.63;;;2.60;;
69392;SDS011;56582;44.624;20.378;2022-07-19T14:20:55;5.30;;;3.03;;
69392;SDS011;56582;44.624;20.378;2022-07-19T14:23:21;6.33;;;2.80;;
69392;SDS011;56582;44.624;20.378;2022-07-19T14:25:47;6.97;;;2.55;;
69392;SDS011;56582;44.624;20.378;2022-07-19T14:28:13;6.93;;;3.25;;
69392;SDS011;56582;44.624;20.378;2022-07-19T14:30:38;5.17;;;2.80;;
69392;SDS011;56582;44.624;20.378;2022-07-19T14:33:04;7.00;;;3.03;;
69392;SDS011;56582;44.624;20.378;2022-07-19T14:35:29;5.87;;;2.90;;
69392;SDS011;56582;44.624;20.378;2022-07-19T14:37:55;7.85;;;3.15;;
69392;SDS011;56582;44.624;20.378;2022-07-19T14:40:20;5.43;;;2.50;;
69392;SDS011;56582;44.624;20.378;2022-07-19T14:42:46;4.78;;;2.30;;
69392;SDS011;56582;44.624;20.378;2022-07-19T14:45:12;5.53;;;3.50;;
69392;SDS011;56582;44.624;20.378;2022-07-19T14:47:38;6.40;;;4.05;;
69392;SDS011;56582;44.624;20.378;2022-07-19T14:50:04;7.97;;;4.20;;
69392;SDS011;56582;44.624;20.378;2022-07-19T14:52:31;7.68;;;3.80;;
69392;SDS011;56582;44.624;20.378;2022-07-19T14:54:57;5.13;;;3.70;;
69392;SDS011;56582;44.624;20.378;2022-07-19T14:57:22;6.53;;;4.30;;
69392;SDS011;56582;44.624;20.378;2022-07-19T14:59:48;4.68;;;2.88;;
69392;SDS011;56582;44.624;20.378;2022-07-19T15:02:14;9.27;;;3.22;;
69392;SDS011;56582;44.624;20.378;2022-07-19T15:04:40;5.97;;;3.00;;
69392;SDS011;56582;44.624;20.378;2022-07-19T15:07:05;5.67;;;3.30;;
69392;SDS011;56582;44.624;20.378;2022-07-19T15:09:31;5.68;;;3.08;;